createdAt,value
2022-07-28T00:00:24.329Z,76.98
2022-07-28T00:03:40.962Z,76.96
2022-07-28T00:06:45.990Z,76.98
2022-07-28T00:09:47.734Z,76.90
2022-07-28T00:12:49.620Z,76.82
2022-07-28T00:15:51.670Z,76.65
2022-07-28T00:18:53.502Z,76.53
2022-07-28T00:21:55.435Z,76.45
2022-07-28T00:24:57.204Z,76.38
2022-07-28T00:27:59.186Z,76.30
2022-07-28T00:31:05.002Z,76.33
2022-07-28T00:34:07.942Z,76.23
2022-07-28T00:37:14.442Z,76.07
2022-07-28T00:40:16.787Z,76.17
2022-07-28T00:43:18.454Z,76.02
2022-07-28T00:46:21.770Z,76.04
2022-07-28T00:49:24.580Z,76.06
2022-07-28T00:52:26.765Z,76.03
2022-07-28T00:55:28.544Z,75.94
2022-07-28T00:58:30.598Z,76.04
2022-07-28T01:01:32.437Z,75.94
2022-07-28T01:04:34.766Z,75.94
2022-07-28T01:07:46.743Z,75.96
2022-07-28T01:10:57.634Z,75.94
2022-07-28T01:14:10.967Z,75.93
2022-07-28T01:17:34.335Z,75.81
2022-07-28T01:20:40.090Z,75.81
2022-07-28T01:24:05.699Z,75.82
2022-07-28T01:27:31.948Z,76.10
2022-07-28T01:30:42.122Z,76.23
2022-07-28T01:33:48.313Z,76.37
2022-07-28T01:36:55.515Z,76.42
2022-07-28T01:40:01.765Z,76.78
2022-07-28T01:43:06.866Z,76.88
2022-07-28T01:46:10.954Z,76.76
2022-07-28T01:49:14.077Z,76.94
2022-07-28T01:52:16.612Z,76.98
2022-07-28T01:55:21.096Z,77.01
2022-07-28T01:58:23.824Z,77.00
2022-07-28T02:01:26.782Z,77.14
2022-07-28T02:04:29.374Z,77.40
2022-07-28T02:07:33.250Z,77.67
2022-07-28T02:10:35.221Z,77.96
2022-07-28T02:13:37.769Z,78.22
2022-07-28T02:16:43.830Z,78.53
2022-07-28T02:19:49.331Z,78.71
2022-07-28T02:22:52.464Z,78.93
2022-07-28T02:25:55.639Z,79.30
2022-07-28T02:28:58.997Z,79.58
2022-07-28T02:32:24.101Z,79.93
2022-07-28T02:35:57.515Z,80.22
2022-07-28T02:39:07.690Z,80.35
2022-07-28T02:42:14.117Z,80.35
2022-07-28T02:45:17.196Z,80.31
2022-07-28T02:48:22.045Z,80.50
2022-07-28T02:51:25.231Z,80.81
2022-07-28T02:54:28.797Z,81.14
2022-07-28T02:57:31.334Z,81.24
2022-07-28T03:00:33.136Z,81.52
2022-07-28T03:03:35.066Z,81.69
2022-07-28T03:06:36.894Z,81.81
2022-07-28T03:09:43.751Z,82.04
2022-07-28T03:12:45.961Z,82.34
2022-07-28T03:15:47.745Z,82.48
2022-07-28T03:18:49.448Z,82.65
2022-07-28T03:21:54.243Z,82.90
2022-07-28T03:24:56.829Z,82.95
2022-07-28T03:27:59.540Z,82.79
2022-07-28T03:31:04.574Z,82.84
2022-07-28T03:34:06.492Z,82.85
2022-07-28T03:37:13.685Z,82.72
2022-07-28T03:40:15.828Z,82.42
2022-07-28T03:43:20.106Z,82.52
2022-07-28T03:46:22.177Z,82.33
2022-07-28T03:49:24.154Z,82.27
2022-07-28T03:52:26.059Z,82.26
2022-07-28T03:55:27.849Z,82.21
2022-07-28T03:58:29.617Z,82.10
2022-07-28T04:01:31.511Z,82.09
2022-07-28T04:04:33.400Z,82.13
2022-07-28T04:07:35.028Z,82.13
2022-07-28T04:10:36.878Z,82.21
2022-07-28T04:13:38.758Z,82.23
2022-07-28T04:16:40.625Z,82.16
2022-07-28T04:19:42.445Z,82.23
2022-07-28T04:22:45.301Z,82.59
2022-07-28T04:25:47.082Z,82.49
2022-07-28T04:28:48.890Z,82.60
2022-07-28T04:31:50.927Z,82.46
2022-07-28T04:34:52.736Z,82.55
2022-07-28T04:38:00.875Z,82.50
2022-07-28T04:41:03.599Z,82.61
2022-07-28T04:44:05.532Z,82.50
2022-07-28T04:47:07.356Z,82.51
2022-07-28T04:50:11.028Z,82.59
2022-07-28T04:53:13.659Z,82.78
2022-07-28T04:56:15.379Z,82.79
2022-07-28T04:59:17.348Z,82.92
2022-07-28T05:02:21.111Z,82.98
2022-07-28T05:05:22.904Z,82.97
2022-07-28T05:08:25.722Z,82.92
2022-07-28T05:11:28.289Z,82.82
2022-07-28T05:14:29.937Z,82.80
2022-07-28T05:17:31.861Z,82.60
2022-07-28T05:20:33.722Z,82.74
2022-07-28T05:23:35.454Z,82.77
2022-07-28T05:26:37.601Z,82.75
2022-07-28T05:29:47.129Z,82.60
2022-07-28T05:32:50.777Z,82.72
2022-07-28T05:35:54.726Z,82.44
2022-07-28T05:38:56.605Z,82.11
2022-07-28T05:41:59.633Z,81.83
2022-07-28T05:45:15.084Z,81.70
2022-07-28T05:48:19.064Z,81.46
2022-07-28T05:51:20.851Z,81.48
2022-07-28T05:54:22.584Z,81.27
2022-07-28T05:57:24.659Z,80.81
2022-07-28T06:00:27.182Z,80.80
2022-07-28T06:03:32.541Z,80.78
2022-07-28T06:06:34.623Z,80.31
2022-07-28T06:09:36.457Z,80.36
2022-07-28T06:12:49.865Z,80.15
2022-07-28T06:15:52.920Z,79.67
2022-07-28T06:18:54.808Z,79.74
2022-07-28T06:21:56.596Z,79.59
2022-07-28T06:24:58.266Z,79.07
2022-07-28T06:28:02.988Z,79.19
2022-07-28T06:31:05.034Z,78.95
2022-07-28T06:34:07.156Z,78.87
2022-07-28T06:37:08.905Z,78.40
2022-07-28T06:40:12.461Z,78.17
2022-07-28T06:43:14.885Z,77.68
2022-07-28T06:46:19.727Z,77.63
2022-07-28T06:49:22.031Z,78.61
2022-07-28T06:52:24.187Z,79.03
2022-07-28T06:55:34.588Z,78.82
2022-07-28T06:58:37.706Z,78.88
2022-07-28T07:01:39.396Z,78.71
2022-07-28T07:04:41.150Z,76.96
2022-07-28T07:07:43.744Z,75.19
2022-07-28T07:10:45.877Z,75.57
2022-07-28T07:13:48.088Z,73.88
2022-07-28T07:16:50.827Z,74.07
2022-07-28T07:19:52.521Z,73.74
2022-07-28T07:22:54.585Z,73.50
2022-07-28T07:25:56.506Z,71.46
2022-07-28T07:28:58.306Z,71.02
2022-07-28T07:32:00.197Z,71.50
2022-07-28T07:35:02.083Z,71.85
2022-07-28T07:38:04.164Z,71.32
2022-07-28T07:41:05.995Z,71.70
2022-07-28T07:44:09.780Z,71.51
2022-07-28T07:47:11.550Z,72.16
2022-07-28T07:50:13.290Z,71.83
2022-07-28T07:53:15.104Z,70.99
2022-07-28T07:56:18.454Z,69.72
2022-07-28T07:59:20.194Z,69.50
2022-07-28T08:02:21.963Z,68.80
2022-07-28T08:05:35.523Z,68.32
2022-07-28T08:08:43.844Z,67.52
2022-07-28T08:11:48.259Z,65.39
2022-07-28T08:14:50.080Z,65.26
2022-07-28T08:17:51.825Z,64.43
2022-07-28T08:20:53.658Z,63.93
2022-07-28T08:23:55.999Z,64.84
2022-07-28T08:26:57.710Z,64.18
2022-07-28T08:29:59.438Z,63.56
2022-07-28T08:33:03.085Z,63.69
2022-07-28T08:36:05.381Z,63.58
2022-07-28T08:39:07.186Z,62.25
2022-07-28T08:42:17.900Z,62.36
2022-07-28T08:45:21.043Z,62.10
2022-07-28T08:48:23.684Z,61.33
2022-07-28T08:51:27.596Z,61.31
2022-07-28T08:54:29.809Z,60.35
2022-07-28T08:57:37.467Z,58.61
2022-07-28T09:00:39.296Z,59.22
2022-07-28T09:03:41.793Z,59.87
2022-07-28T09:06:44.089Z,59.76
2022-07-28T09:09:49.017Z,59.47
2022-07-28T09:12:51.233Z,58.78
2022-07-28T09:15:53.157Z,57.57
2022-07-28T09:18:56.627Z,57.63
2022-07-28T09:21:59.401Z,57.67
2022-07-28T09:25:03.965Z,56.85
2022-07-28T09:28:14.866Z,55.35
2022-07-28T09:31:18.225Z,55.30
2022-07-28T09:34:21.606Z,56.78
2022-07-28T09:37:27.631Z,55.91
2022-07-28T09:40:29.775Z,55.72
2022-07-28T09:43:35.552Z,55.55
2022-07-28T09:46:37.495Z,54.91
2022-07-28T09:49:44.889Z,54.29
2022-07-28T09:52:46.911Z,53.68
2022-07-28T09:55:55.283Z,53.23
2022-07-28T09:58:59.383Z,53.91
2022-07-28T10:02:02.615Z,52.81
2022-07-28T10:05:05.856Z,53.37
2022-07-28T10:08:07.636Z,53.26
2022-07-28T10:11:10.872Z,51.93
2022-07-28T10:14:13.802Z,50.70
2022-07-28T10:17:27.180Z,50.64
2022-07-28T10:20:29.770Z,50.95
2022-07-28T10:23:31.601Z,51.52
2022-07-28T10:26:44.155Z,52.12
2022-07-28T10:29:46.062Z,52.68
2022-07-28T10:32:47.762Z,51.25
2022-07-28T10:35:55.503Z,51.14
2022-07-28T10:39:10.367Z,50.92
2022-07-28T10:42:12.801Z,51.70
2022-07-28T10:45:15.580Z,50.77
2022-07-28T10:48:17.722Z,49.82
2022-07-28T10:51:21.368Z,48.43
2022-07-28T10:54:28.642Z,47.81
2022-07-28T10:57:31.611Z,48.40
2022-07-28T11:00:54.444Z,49.37
2022-07-28T11:03:56.299Z,49.32
2022-07-28T11:07:16.825Z,48.29
2022-07-28T11:10:19.690Z,47.52
2022-07-28T11:13:30.643Z,46.45
2022-07-28T11:16:36.901Z,47.20
2022-07-28T11:20:16.867Z,48.33
2022-07-28T11:23:40.857Z,48.38
2022-07-28T11:26:48.676Z,47.17
2022-07-28T11:29:50.417Z,47.17
2022-07-28T11:32:54.776Z,46.61
2022-07-28T11:35:57.251Z,46.79
2022-07-28T11:39:22.009Z,46.91
2022-07-28T11:42:26.746Z,45.14
2022-07-28T11:45:38.783Z,44.76
2022-07-28T11:48:45.141Z,45.51
2022-07-28T11:52:22.933Z,44.21
2022-07-28T11:55:55.745Z,44.97
2022-07-28T11:58:46.489Z,44.49
2022-07-28T12:01:54.610Z,43.51
2022-07-28T12:05:15.777Z,43.27
2022-07-28T12:08:17.750Z,43.73
2022-07-28T12:11:20.336Z,44.44
2022-07-28T12:14:29.182Z,43.82
2022-07-28T12:17:34.249Z,43.67
2022-07-28T12:20:45.433Z,44.04
2022-07-28T12:23:54.295Z,43.67
2022-07-28T12:26:57.717Z,43.22
2022-07-28T12:30:02.095Z,42.80
2022-07-28T12:33:16.478Z,42.62
2022-07-28T12:36:19.569Z,43.14
2022-07-28T12:39:26.115Z,43.13
2022-07-28T12:42:31.399Z,42.43
2022-07-28T12:45:33.344Z,41.80
2022-07-28T12:48:35.260Z,41.77
2022-07-28T12:51:40.385Z,41.56
2022-07-28T12:54:42.210Z,41.80
2022-07-28T12:57:55.298Z,41.41
2022-07-28T13:00:57.364Z,42.26
2022-07-28T13:03:59.107Z,41.71
2022-07-28T13:07:01.021Z,41.12
2022-07-28T13:10:05.469Z,40.85
2022-07-28T13:13:07.884Z,41.42
2022-07-28T13:16:18.711Z,41.85
2022-07-28T13:19:21.740Z,42.05
2022-07-28T13:22:30.051Z,40.61
2022-07-28T13:25:31.924Z,40.52
2022-07-28T13:28:34.830Z,41.06
2022-07-28T13:31:37.782Z,41.06
2022-07-28T13:34:39.813Z,41.11
2022-07-28T13:37:41.609Z,41.43
2022-07-28T13:40:43.394Z,41.22
2022-07-28T13:43:48.156Z,41.30
2022-07-28T13:46:50.816Z,40.87
2022-07-28T13:49:52.598Z,40.67
2022-07-28T13:52:54.636Z,41.07
2022-07-28T13:55:56.362Z,41.66
2022-07-28T13:59:11.067Z,41.97
2022-07-28T14:02:16.220Z,41.52
2022-07-28T14:05:18.423Z,40.80
2022-07-28T14:08:20.618Z,40.86
2022-07-28T14:11:27.322Z,40.52
2022-07-28T14:14:29.430Z,40.67
2022-07-28T14:17:44.737Z,40.00
2022-07-28T14:20:47.669Z,39.97
2022-07-28T14:23:49.497Z,40.95
2022-07-28T14:26:51.268Z,41.70
2022-07-28T14:29:53.156Z,40.85
2022-07-28T14:32:55.965Z,41.16
2022-07-28T14:35:58.390Z,41.47
2022-07-28T14:39:00.139Z,41.16
2022-07-28T14:42:01.877Z,41.25
2022-07-28T14:45:05.715Z,41.15
2022-07-28T14:48:07.480Z,41.84
2022-07-28T14:51:11.637Z,40.72
2022-07-28T14:54:13.613Z,40.86
2022-07-28T14:57:16.074Z,40.40
2022-07-28T15:00:18.285Z,40.97
2022-07-28T15:03:20.167Z,40.83
2022-07-28T15:06:21.963Z,40.30
2022-07-28T15:09:23.820Z,40.97
2022-07-28T15:12:25.685Z,40.72
2022-07-28T15:15:27.743Z,40.61
2022-07-28T15:18:29.580Z,40.79
2022-07-28T15:21:36.349Z,41.62
2022-07-28T15:24:38.499Z,41.58
2022-07-28T15:27:45.354Z,41.44
2022-07-28T15:30:52.666Z,41.98
2022-07-28T15:33:58.058Z,41.50
2022-07-28T15:37:01.136Z,40.98
2022-07-28T15:40:02.969Z,40.20
2022-07-28T15:43:04.933Z,40.79
2022-07-28T15:46:10.327Z,40.98
2022-07-28T15:49:12.435Z,40.89
2022-07-28T15:52:14.758Z,40.55
2022-07-28T15:55:16.634Z,41.29
2022-07-28T15:58:19.390Z,41.92
2022-07-28T16:01:22.368Z,42.13
2022-07-28T16:04:24.137Z,42.13
2022-07-28T16:07:28.350Z,41.92
2022-07-28T16:10:30.062Z,42.41
2022-07-28T16:13:37.134Z,41.90
2022-07-28T16:16:39.298Z,41.43
2022-07-28T16:19:50.208Z,41.56
2022-07-28T16:22:52.586Z,41.46
2022-07-28T16:25:54.416Z,42.13
2022-07-28T16:28:56.183Z,42.46
2022-07-28T16:31:57.934Z,43.14
2022-07-28T16:34:59.683Z,43.27
2022-07-28T16:38:05.535Z,42.87
2022-07-28T16:41:07.304Z,43.04
2022-07-28T16:44:09.030Z,42.88
2022-07-28T16:47:10.837Z,43.03
2022-07-28T16:50:12.624Z,43.20
2022-07-28T16:53:14.622Z,43.22
2022-07-28T16:56:19.437Z,43.73
2022-07-28T16:59:22.475Z,43.88
2022-07-28T17:02:24.354Z,44.33
2022-07-28T17:05:26.207Z,44.59
2022-07-28T17:08:28.024Z,44.54
2022-07-28T17:11:29.872Z,44.35
2022-07-28T17:14:31.707Z,43.20
2022-07-28T17:17:34.012Z,42.72
2022-07-28T17:20:39.641Z,42.14
2022-07-28T17:23:41.424Z,41.79
2022-07-28T17:27:35.074Z,41.93
2022-07-28T17:30:06.771Z,42.80
2022-07-28T17:33:09.144Z,43.82
2022-07-28T17:36:11.011Z,44.50
2022-07-28T17:39:13.205Z,45.00
2022-07-28T17:42:15.086Z,45.46
2022-07-28T17:45:16.811Z,45.95
2022-07-28T17:48:18.959Z,46.40
2022-07-28T17:51:20.903Z,46.83
2022-07-28T17:54:26.179Z,47.20
2022-07-28T17:57:28.046Z,47.58
2022-07-28T18:00:32.799Z,48.03
2022-07-28T18:03:56.871Z,48.28
2022-07-28T18:06:56.348Z,48.63
2022-07-28T18:09:58.115Z,48.99
2022-07-28T18:13:00.703Z,49.29
2022-07-28T18:16:02.752Z,49.51
2022-07-28T18:19:04.717Z,49.84
2022-07-28T18:22:06.468Z,50.19
2022-07-28T18:25:09.284Z,50.56
2022-07-28T18:28:11.376Z,50.86
2022-07-28T18:31:13.977Z,50.93
2022-07-28T18:34:16.245Z,51.39
2022-07-28T18:37:18.364Z,51.70
2022-07-28T18:40:24.494Z,51.89
2022-07-28T18:43:26.362Z,52.01
2022-07-28T18:46:29.110Z,52.32
2022-07-28T18:49:37.194Z,52.43
2022-07-28T18:52:41.131Z,52.71
2022-07-28T18:55:42.945Z,53.00
2022-07-28T18:58:44.923Z,53.43
2022-07-28T19:01:47.784Z,53.67
2022-07-28T19:04:49.562Z,54.05
2022-07-28T19:07:51.211Z,54.46
2022-07-28T19:10:53.012Z,54.65
2022-07-28T19:13:54.865Z,55.00
2022-07-28T19:16:56.920Z,55.31
2022-07-28T19:19:59.804Z,55.71
2022-07-28T19:23:05.143Z,56.18
2022-07-28T19:26:07.616Z,56.45
2022-07-28T19:29:09.735Z,56.93
2022-07-28T19:32:11.439Z,57.18
2022-07-28T19:35:13.838Z,57.49
2022-07-28T19:38:15.682Z,57.84
2022-07-28T19:41:17.441Z,58.28
2022-07-28T19:44:19.514Z,58.67
2022-07-28T19:47:23.439Z,58.83
2022-07-28T19:50:25.441Z,59.16
2022-07-28T19:53:31.989Z,59.19
2022-07-28T19:56:34.327Z,59.54
2022-07-28T19:59:36.073Z,59.88
2022-07-28T20:02:38.152Z,60.23
2022-07-28T20:05:40.025Z,60.53
2022-07-28T20:08:41.825Z,60.85
2022-07-28T20:11:43.655Z,61.17
2022-07-28T20:14:45.350Z,61.50
2022-07-28T20:17:47.135Z,61.68
2022-07-28T20:20:49.214Z,62.06
2022-07-28T20:23:53.265Z,62.55
2022-07-28T20:26:55.118Z,62.84
2022-07-28T20:29:58.936Z,63.09
2022-07-28T20:33:02.633Z,63.20
2022-07-28T20:36:04.553Z,63.52
2022-07-28T20:39:27.475Z,63.64
2022-07-28T20:42:28.239Z,63.92
2022-07-28T20:45:32.042Z,64.53
2022-07-28T20:48:34.148Z,65.13
2022-07-28T20:51:35.959Z,65.65
2022-07-28T20:54:37.935Z,65.75
2022-07-28T20:57:39.804Z,65.89
2022-07-28T21:00:41.713Z,66.03
2022-07-28T21:03:45.349Z,66.38
2022-07-28T21:06:51.014Z,66.50
2022-07-28T21:09:54.730Z,66.70
2022-07-28T21:12:56.466Z,66.95
2022-07-28T21:15:58.617Z,66.98
2022-07-28T21:19:00.606Z,66.94
2022-07-28T21:22:02.351Z,67.11
2022-07-28T21:25:04.553Z,67.20
2022-07-28T21:28:25.145Z,67.39
2022-07-28T21:31:27.165Z,67.83
2022-07-28T21:34:29.067Z,67.89
2022-07-28T21:37:30.807Z,68.25
2022-07-28T21:40:32.625Z,68.43
2022-07-28T21:43:34.657Z,68.62
2022-07-28T21:46:36.926Z,68.83
2022-07-28T21:49:38.808Z,68.98
2022-07-28T21:52:40.712Z,69.37
2022-07-28T21:55:42.631Z,69.66
2022-07-28T21:58:46.430Z,69.79
2022-07-28T22:01:48.898Z,69.99
2022-07-28T22:04:50.719Z,69.99
2022-07-28T22:07:53.354Z,70.14
2022-07-28T22:10:55.211Z,70.01
2022-07-28T22:13:57.028Z,69.90
2022-07-28T22:17:02.342Z,70.17
2022-07-28T22:20:05.429Z,70.85
2022-07-28T22:23:28.636Z,71.10
2022-07-28T22:26:29.830Z,71.27
2022-07-28T22:29:31.601Z,71.33
2022-07-28T22:32:33.299Z,71.48
2022-07-28T22:35:35.031Z,71.74
2022-07-28T22:38:37.076Z,71.97
2022-07-28T22:41:38.924Z,71.98
2022-07-28T22:44:40.984Z,72.03
2022-07-28T22:47:42.996Z,72.54
2022-07-28T22:50:45.083Z,72.76
2022-07-28T22:53:46.802Z,72.85
2022-07-28T22:56:51.572Z,73.08
2022-07-28T22:59:53.848Z,73.08
2022-07-28T23:02:55.721Z,73.16
2022-07-28T23:05:59.116Z,73.15
2022-07-28T23:09:00.932Z,73.23
2022-07-28T23:12:02.857Z,73.22
2022-07-28T23:15:06.086Z,73.21
2022-07-28T23:18:08.327Z,73.12
2022-07-28T23:21:11.415Z,73.07
2022-07-28T23:24:13.636Z,73.21
2022-07-28T23:27:15.968Z,73.19
2022-07-28T23:30:18.496Z,73.31
2022-07-28T23:33:55.979Z,73.36
2022-07-28T23:36:43.018Z,73.57
2022-07-28T23:39:45.000Z,73.41
2022-07-28T23:42:46.899Z,73.43
2022-07-28T23:45:48.718Z,73.54
2022-07-28T23:48:50.784Z,73.72
2022-07-28T23:51:52.555Z,73.80
2022-07-28T23:54:54.383Z,73.77
2022-07-28T23:57:56.052Z,73.68
